createdAt,value
2023-03-04T00:00:17.066Z,101091.59
2023-03-04T00:05:15.871Z,101093.44
2023-03-04T00:10:14.787Z,101087.28
2023-03-04T00:15:13.625Z,101099.94
2023-03-04T00:20:14.946Z,101095.16
2023-03-04T00:25:13.724Z,101092.09
2023-03-04T00:30:13.162Z,101092.16
2023-03-04T00:35:13.384Z,101087.28
2023-03-04T00:40:13.303Z,101083.56
2023-03-04T00:45:12.464Z,101088.69
2023-03-04T00:50:13.752Z,101087.28
2023-03-04T00:55:12.550Z,101094.97
2023-03-04T01:00:12.681Z,101088.78
2023-03-04T01:05:13.317Z,101093.31
2023-03-04T01:10:14.191Z,101086.06
2023-03-04T01:15:15.092Z,101092.22
2023-03-04T01:20:15.926Z,101088.03
2023-03-04T01:25:14.697Z,101080.16
2023-03-04T01:30:14.135Z,101079.41
2023-03-04T01:35:13.040Z,101082.94
2023-03-04T01:40:14.902Z,101078.28
2023-03-04T01:45:17.276Z,101085.81
2023-03-04T01:50:22.096Z,101069.91
2023-03-04T01:55:24.778Z,101067.06
2023-03-04T02:00:28.015Z,101051.16
2023-03-04T02:05:26.941Z,101051.84
2023-03-04T02:10:28.058Z,101049.13
2023-03-04T02:15:27.250Z,101055.16
2023-03-04T02:20:45.131Z,101049.25
2023-03-04T02:25:50.728Z,101050.50
2023-03-04T02:30:51.355Z,101043.50
2023-03-04T02:35:50.190Z,101051.34
2023-03-04T02:40:54.087Z,101050.69
2023-03-04T02:45:54.009Z,101049.75
2023-03-04T02:50:54.900Z,101041.38
2023-03-04T02:55:53.923Z,101034.44
2023-03-04T03:00:57.256Z,101033.13
2023-03-04T03:05:57.657Z,101026.88
2023-03-04T03:10:58.178Z,101023.75
2023-03-04T03:15:59.514Z,101026.25
2023-03-04T03:20:58.441Z,101034.28
2023-03-04T03:25:57.349Z,101033.38
2023-03-04T03:31:00.670Z,101048.78
2023-03-04T03:36:00.386Z,101038.50
2023-03-04T03:40:59.275Z,101038.00
2023-03-04T03:45:58.574Z,101040.50
2023-03-04T03:50:58.755Z,101036.81
2023-03-04T03:55:59.078Z,101028.13
2023-03-04T04:00:58.565Z,101025.03
2023-03-04T04:05:58.960Z,101023.09
2023-03-04T04:10:57.879Z,101014.88
2023-03-04T04:15:56.708Z,101015.72
2023-03-04T04:20:55.882Z,101018.03
2023-03-04T04:25:57.925Z,101029.16
2023-03-04T04:30:56.801Z,101035.84
2023-03-04T04:35:55.554Z,101037.25
2023-03-04T04:40:54.382Z,101042.19
2023-03-04T04:45:54.774Z,101054.16
2023-03-04T04:50:56.731Z,101047.84
2023-03-04T04:55:55.487Z,101050.31
2023-03-04T05:00:58.045Z,101054.47
2023-03-04T05:05:56.848Z,101049.16
2023-03-04T05:10:55.683Z,101055.34
2023-03-04T05:15:57.147Z,101052.63
2023-03-04T05:20:58.036Z,101041.97
2023-03-04T05:25:57.123Z,101057.34
2023-03-04T05:30:57.278Z,101066.00
2023-03-04T05:35:56.180Z,101072.63
2023-03-04T05:40:59.854Z,101079.16
2023-03-04T05:46:00.113Z,101076.50
2023-03-04T05:51:00.957Z,101077.00
2023-03-04T05:56:00.140Z,101084.75
2023-03-04T06:01:03.096Z,101084.84
2023-03-04T06:06:02.272Z,101074.69
2023-03-04T06:11:01.013Z,101085.19
2023-03-04T06:16:01.139Z,101089.38
2023-03-04T06:21:03.246Z,101099.28
2023-03-04T06:26:02.860Z,101101.28
2023-03-04T06:31:01.905Z,101102.91
2023-03-04T06:36:02.223Z,101116.50
2023-03-04T06:41:09.064Z,101119.78
2023-03-04T06:46:10.866Z,101116.91
2023-03-04T06:51:13.467Z,101115.41
2023-03-04T06:56:16.226Z,101110.34
2023-03-04T07:01:17.187Z,101102.81
2023-03-04T07:06:20.191Z,101112.44
2023-03-04T07:11:20.112Z,101116.88
2023-03-04T07:16:21.615Z,101110.97
2023-03-04T07:21:22.688Z,101103.28
2023-03-04T07:26:21.860Z,101099.41
2023-03-04T07:31:27.686Z,101101.16
2023-03-04T07:36:28.473Z,101095.06
2023-03-04T07:41:29.280Z,101102.31
2023-03-04T07:46:28.067Z,101087.13
2023-03-04T07:51:29.409Z,101091.22
2023-03-04T07:56:30.183Z,101085.56
2023-03-04T08:01:31.378Z,101078.84
2023-03-04T08:06:31.911Z,101074.38
2023-03-04T08:11:32.009Z,101072.84
2023-03-04T08:16:30.945Z,101070.22
2023-03-04T08:21:31.445Z,101067.88
2023-03-04T08:26:34.124Z,101056.81
2023-03-04T08:31:34.000Z,101050.75
2023-03-04T08:36:37.307Z,101051.25
2023-03-04T08:41:36.544Z,101045.81
2023-03-04T08:46:39.902Z,101041.38
2023-03-04T08:51:40.439Z,101040.97
2023-03-04T08:56:41.160Z,101031.66
2023-03-04T09:01:46.878Z,101027.81
2023-03-04T09:06:47.224Z,101029.13
2023-03-04T09:11:46.000Z,101021.50
2023-03-04T09:16:44.762Z,101019.16
2023-03-04T09:21:43.515Z,101009.44
2023-03-04T09:26:43.858Z,101014.00
2023-03-04T09:31:42.669Z,101007.44
2023-03-04T09:36:41.446Z,101013.34
2023-03-04T09:41:44.493Z,101003.25
2023-03-04T09:46:46.258Z,100996.47
2023-03-04T09:51:56.800Z,100996.72
2023-03-04T09:57:01.386Z,100977.28
2023-03-04T10:02:02.310Z,100980.72
2023-03-04T10:07:02.794Z,100970.59
2023-03-04T10:12:07.396Z,100971.63
2023-03-04T10:17:13.768Z,100959.38
2023-03-04T10:22:21.060Z,100969.66
2023-03-04T10:27:21.346Z,100941.38
2023-03-04T10:32:21.781Z,100933.69
2023-03-04T10:37:20.907Z,100935.66
2023-03-04T10:42:37.610Z,100922.69
2023-03-04T10:47:36.680Z,100914.31
2023-03-04T10:52:39.799Z,100902.25
2023-03-04T10:57:41.311Z,100893.00
2023-03-04T11:02:40.257Z,100874.63
2023-03-04T11:07:54.670Z,100857.56
2023-03-04T11:13:02.156Z,100852.66
2023-03-04T11:18:04.974Z,100843.03
2023-03-04T11:23:08.133Z,100838.31
2023-03-04T11:28:17.188Z,100833.88
2023-03-04T11:33:27.782Z,100827.09
2023-03-04T11:38:33.451Z,100836.09
2023-03-04T11:43:37.533Z,100816.56
2023-03-04T11:48:46.784Z,100813.34
2023-03-04T11:53:55.689Z,100805.56
2023-03-04T11:59:32.842Z,100801.63
2023-03-04T12:04:47.916Z,100783.72
2023-03-04T12:09:58.983Z,100787.84
2023-03-04T12:15:09.368Z,100794.38
2023-03-04T12:20:33.544Z,100779.84
2023-03-04T12:25:42.754Z,100779.00
2023-03-04T12:30:54.183Z,100791.72
2023-03-04T12:36:03.121Z,100764.91
2023-03-04T12:41:12.613Z,100761.31
2023-03-04T12:46:24.391Z,100745.81
2023-03-04T12:51:34.963Z,100749.00
2023-03-04T12:56:43.695Z,100724.84
2023-03-04T13:01:47.515Z,100724.34
2023-03-04T13:06:54.713Z,100713.94
2023-03-04T13:11:55.935Z,100702.34
2023-03-04T13:16:57.153Z,100706.28
2023-03-04T13:21:58.023Z,100693.84
2023-03-04T13:26:57.001Z,100676.03
2023-03-04T13:32:00.971Z,100673.13
2023-03-04T13:37:01.225Z,100672.44
2023-03-04T13:42:01.138Z,100654.13
2023-03-04T13:47:10.188Z,100649.75
2023-03-04T13:52:45.494Z,100644.22
2023-03-04T13:57:51.221Z,100642.00
2023-03-04T14:02:50.147Z,100621.06
2023-03-04T14:07:49.130Z,100623.34
2023-03-04T14:12:52.713Z,100616.91
2023-03-04T14:17:54.794Z,100608.38
2023-03-04T14:22:53.914Z,100600.88
2023-03-04T14:28:04.294Z,100601.69
2023-03-04T14:33:04.118Z,100597.47
2023-03-04T14:38:06.342Z,100587.16
2023-03-04T14:43:12.552Z,100574.66
2023-03-04T14:48:22.542Z,100571.41
2023-03-04T14:53:23.300Z,100576.06
2023-03-04T14:58:27.050Z,100569.25
2023-03-04T15:03:29.357Z,100577.41
2023-03-04T15:08:31.309Z,100559.22
2023-03-04T15:13:41.922Z,100563.53
2023-03-04T15:18:41.336Z,100560.84
2023-03-04T15:23:40.278Z,100564.00
2023-03-04T15:28:42.682Z,100558.59
2023-03-04T15:33:41.498Z,100548.53
2023-03-04T15:38:41.903Z,100541.56
2023-03-04T15:43:42.069Z,100539.00
2023-03-04T15:48:40.841Z,100536.63
2023-03-04T15:53:41.692Z,100530.16
2023-03-04T15:58:43.298Z,100530.50
2023-03-04T16:03:42.585Z,100523.81
2023-03-04T16:08:43.116Z,100521.25
2023-03-04T16:13:43.289Z,100515.44
2023-03-04T16:18:42.822Z,100521.38
2023-03-04T16:23:43.980Z,100529.56
2023-03-04T16:28:44.204Z,100530.09
2023-03-04T16:33:43.328Z,100527.50
2023-03-04T16:38:42.291Z,100537.72
2023-03-04T16:43:41.576Z,100534.84
2023-03-04T16:48:42.519Z,100536.06
2023-03-04T16:53:45.627Z,100541.31
2023-03-04T16:58:45.349Z,100541.59
2023-03-04T17:03:45.641Z,100546.16
2023-03-04T17:08:44.890Z,100551.84
2023-03-04T17:13:43.971Z,100541.28
2023-03-04T17:18:44.340Z,100549.69
2023-03-04T17:23:44.494Z,100536.22
2023-03-04T17:28:43.687Z,100541.78
2023-03-04T17:33:43.848Z,100543.72
2023-03-04T17:38:44.247Z,100540.13
2023-03-04T17:43:44.475Z,100552.63
2023-03-04T17:48:45.929Z,100544.19
2023-03-04T17:53:46.162Z,100549.06
2023-03-04T17:58:45.085Z,100534.19
2023-03-04T18:03:43.900Z,100534.59
2023-03-04T18:08:42.737Z,100543.69
2023-03-04T18:13:44.271Z,100540.25
2023-03-04T18:18:43.923Z,100539.00
2023-03-04T18:23:42.651Z,100538.22
2023-03-04T18:28:43.124Z,100542.91
2023-03-04T18:33:41.860Z,100539.06
2023-03-04T18:38:40.896Z,100543.53
2023-03-04T18:43:40.010Z,100534.19
2023-03-04T18:48:44.200Z,100539.28
2023-03-04T18:53:43.168Z,100541.25
2023-03-04T18:58:46.146Z,100534.03
2023-03-04T19:03:47.253Z,100533.50
2023-03-04T19:08:46.061Z,100547.59
2023-03-04T19:13:44.870Z,100550.72
2023-03-04T19:18:43.625Z,100541.63
2023-03-04T19:23:43.765Z,100541.56
2023-03-04T19:28:43.042Z,100539.59
2023-03-04T19:33:42.134Z,100545.88
2023-03-04T19:38:41.095Z,100556.91
2023-03-04T19:43:42.086Z,100560.59
2023-03-04T19:48:41.556Z,100558.19
2023-03-04T19:53:40.329Z,100556.69
2023-03-04T19:58:40.662Z,100567.13
2023-03-04T20:03:39.617Z,100559.63
2023-03-04T20:08:38.635Z,100553.72
2023-03-04T20:13:37.438Z,100562.19
2023-03-04T20:18:37.794Z,100560.31
2023-03-04T20:23:37.343Z,100564.00
2023-03-04T20:28:36.306Z,100567.19
2023-03-04T20:33:35.121Z,100567.09
2023-03-04T20:38:35.395Z,100567.22
2023-03-04T20:43:34.381Z,100572.91
2023-03-04T20:48:33.138Z,100573.41
2023-03-04T20:53:31.949Z,100564.13
2023-03-04T20:58:32.130Z,100560.69
2023-03-04T21:03:31.046Z,100564.91
2023-03-04T21:08:29.875Z,100559.97
2023-03-04T21:13:30.645Z,100549.81
2023-03-04T21:18:30.739Z,100550.13
2023-03-04T21:23:29.624Z,100545.19
2023-03-04T21:28:28.444Z,100542.25
2023-03-04T21:33:34.695Z,100545.16
2023-03-04T21:38:34.076Z,100534.34
2023-03-04T21:43:32.957Z,100536.44
2023-03-04T21:48:33.369Z,100527.25
2023-03-04T21:53:32.741Z,100533.19
2023-03-04T21:58:32.193Z,100544.25
2023-03-04T22:03:32.386Z,100533.63
2023-03-04T22:08:31.152Z,100529.50
2023-03-04T22:13:30.023Z,100519.84
2023-03-04T22:18:29.227Z,100523.19
2023-03-04T22:23:29.971Z,100519.41
2023-03-04T22:28:29.877Z,100507.72
2023-03-04T22:33:29.734Z,100499.72
2023-03-04T22:38:29.925Z,100493.88
2023-03-04T22:43:28.777Z,100492.56
2023-03-04T22:48:27.958Z,100488.38
2023-03-04T22:53:26.699Z,100484.06
2023-03-04T22:58:26.991Z,100487.19
2023-03-04T23:03:25.739Z,100476.72
2023-03-04T23:08:24.468Z,100479.00
2023-03-04T23:13:23.279Z,100475.28
2023-03-04T23:18:23.378Z,100483.47
2023-03-04T23:23:22.178Z,100476.97
2023-03-04T23:28:20.958Z,100477.25
2023-03-04T23:33:19.806Z,100474.59
2023-03-04T23:38:19.952Z,100477.56
2023-03-04T23:43:18.733Z,100478.16
2023-03-04T23:48:17.555Z,100481.72
2023-03-04T23:53:16.366Z,100479.81
2023-03-04T23:58:16.505Z,100477.78
